Time;durP1;ratioP1;P1;durP2;ratioP2;P2;SDS_P1;SDS_P2;PMS_P1;PMS_P2;Temp;Humidity;BMP_temperature;BMP_pressure;BME280_temperature;BME280_humidity;BME280_pressure;Samples;Min_cycle;Max_cycle;Signal;HPM_P1;HPM_P2
2022/09/01 00:00:37;;;;;;;;;;;;;;;;;;5032536;28;1273;-76
2022/09/01 00:03:03;;;;;;;;;;;;;;;;;;5032366;28;705;-76
2022/09/01 00:05:32;;;;;;;;;;;;;;;;;;5014859;28;1295;-76
2022/09/01 00:07:59;;;;;;;;;;;;;;;;;;5032669;28;1106;-76
2022/09/01 00:10:25;;;;;;;;;;;;;;;;;;5014512;28;1285;-76
2022/09/01 00:12:51;;;;;;;;;;;;;;;;;;5014541;28;1129;-76
2022/09/01 00:15:17;;;;;;;;;;;;;;;;;;5032522;28;1914;-76
2022/09/01 00:17:43;;;;;;;;;;;;;;;;;;5032313;28;957;-76
2022/09/01 00:20:10;;;;;;;;;;;;;;;;;;5032214;28;1404;-75
2022/09/01 00:22:37;;;;;;;;;;;;;;;;;;5032126;28;1064;-76
2022/09/01 00:25:05;;;;;;;;;;;;;;;;;;5032592;28;815;-76
2022/09/01 00:27:31;;;;;;;;;;;;;;;;;;5034956;28;1100;-76
2022/09/01 00:29:57;;;;;;;;;;;;;;;;;;5014160;28;1313;-76
2022/09/01 00:32:24;;;;;;;;;;;;;;;;;;5014049;28;1398;-76
2022/09/01 00:34:50;;;;;;;;;;;;;;;;;;5032160;28;1911;-76
2022/09/01 00:37:16;;;;;;;;;;;;;;;;;;5031764;28;989;-76
2022/09/01 00:39:44;;;;;;;;;;;;;;;;;;5031974;28;1309;-76
2022/09/01 00:42:10;;;;;;;;;;;;;;;;;;5031655;28;839;-76
2022/09/01 00:44:37;;;;;;;;;;;;;;;;;;5014355;28;1339;-76
2022/09/01 00:47:05;;;;;;;;;;;;;;;;;;5014237;28;1132;-76
2022/09/01 00:49:33;;;;;;;;;;;;;;;;;;5031823;28;1343;-76
2022/09/01 00:52:00;;;;;;;;;;;;;;;;;;5031519;28;703;-76
2022/09/01 00:54:27;;;;;;;;;;;;;;;;;;5031590;28;1910;-76
2022/09/01 00:56:55;;;;;;;;;;;;;;;;;;5014107;28;1036;-76
2022/09/01 00:59:22;;;;;;;;;;;;;;;;;;5031606;28;1286;-76
2022/09/01 01:01:48;;;;;;;;;;;;;;;;;;5030568;28;2063;-76
2022/09/01 01:04:15;;;;;;;;;;;;;;;;;;5013772;28;1165;-76
2022/09/01 01:06:42;;;;;;;;;;;;;;;;;;5014071;28;1177;-76
2022/09/01 01:09:08;;;;;;;;;;;;;;;;;;5031298;28;1364;-76
2022/09/01 01:11:34;;;;;;;;;;;;;;;;;;5013631;28;1311;-76
2022/09/01 01:14:10;;;;;;;;;;;;;;;;;;5013737;28;1184;-76
2022/09/01 01:16:39;;;;;;;;;;;;;;;;;;5013706;28;1318;-76
2022/09/01 01:19:05;;;;;;;;;;;;;;;;;;5031443;28;1302;-76
2022/09/01 01:24:22;;;;;;;;;;;;;;;;;;5013466;28;1193;-76
2022/09/01 01:26:49;;;;;;;;;;;;;;;;;;5013571;28;1418;-76
2022/09/01 01:29:16;;;;;;;;;;;;;;;;;;5013659;28;1700;-76
2022/09/01 01:31:42;;;;;;;;;;;;;;;;;;5013106;28;1460;-75
2022/09/01 01:34:09;;;;;;;;;;;;;;;;;;5013723;28;1193;-76
2022/09/01 01:36:36;;;;;;;;;;;;;;;;;;5030774;28;1976;-76
2022/09/01 01:39:06;;;;;;;;;;;;;;;;;;5013522;28;1475;-76
2022/09/01 01:41:35;;;;;;;;;;;;;;;;;;5016197;28;1501;-76
2022/09/01 01:44:03;;;;;;;;;;;;;;;;;;5017670;28;1395;-76
2022/09/01 01:46:30;;;;;;;;;;;;;;;;;;5017379;28;1383;-76
2022/09/01 01:48:56;;;;;;;;;;;;;;;;;;5017406;28;1328;-75
2022/09/01 01:51:25;;;;;;;;;;;;;;;;;;5016962;28;1357;-76
2022/09/01 01:53:52;;;;;;;;;;;;;;;;;;5035320;28;1017;-76
2022/09/01 01:56:18;;;;;;;;;;;;;;;;;;5034720;28;1914;-76
2022/09/01 01:58:46;;;;;;;;;;;;;;;;;;5017473;28;1253;-75
2022/09/01 02:01:12;;;;;;;;;;;;;;;;;;5017054;28;1384;-76
2022/09/01 02:03:39;;;;;;;;;;;;;;;;;;5017498;28;1570;-76
2022/09/01 02:06:08;;;;;;;;;;;;;;;;;;5017341;28;1127;-76
2022/09/01 02:08:35;;;;;;;;;;;;;;;;;;5017003;28;1097;-76
2022/09/01 02:11:04;;;;;;;;;;;;;;;;;;5016869;28;1298;-76
2022/09/01 02:13:30;;;;;;;;;;;;;;;;;;5034391;28;826;-76
2022/09/01 02:16:00;;;;;;;;;;;;;;;;;;5036546;22;2091;-74
2022/09/01 02:18:29;;;;;;;;;;;;;;;;;;5053620;28;1455;-73
2022/09/01 02:20:58;;;;;;;;;;;;;;;;;;5054573;28;920;-73
2022/09/01 02:23:25;;;;;;;;;;;;;;;;;;5053205;28;1345;-74
2022/09/01 02:25:53;;;;;;;;;;;;;;;;;;5053266;28;1458;-73
2022/09/01 02:28:20;;;;;;;;;;;;;;;;;;5054802;28;847;-74
2022/09/01 02:30:50;;;;;;;;;;;;;;;;;;5053175;28;1355;-73
2022/09/01 02:33:18;;;;;;;;;;;;;;;;;;5052916;28;1207;-74
2022/09/01 02:35:48;;;;;;;;;;;;;;;;;;5069608;28;1914;-73
2022/09/01 02:38:16;;;;;;;;;;;;;;;;;;5053046;28;1178;-74
2022/09/01 02:40:45;;;;;;;;;;;;;;;;;;5053227;28;1451;-73
2022/09/01 02:43:12;;;;;;;;;;;;;;;;;;5053633;28;909;-74
2022/09/01 02:45:43;;;;;;;;;;;;;;;;;;5052970;28;1517;-73
2022/09/01 02:48:09;;;;;;;;;;;;;;;;;;5053320;28;1218;-73
2022/09/01 02:50:38;;;;;;;;;;;;;;;;;;5069500;28;1324;-73
2022/09/01 02:53:08;;;;;;;;;;;;;;;;;;5053921;28;1063;-73
2022/09/01 02:55:35;;;;;;;;;;;;;;;;;;5052635;28;1963;-74
2022/09/01 02:58:01;;;;;;;;;;;;;;;;;;5052926;28;1297;-73
2022/09/01 03:00:30;;;;;;;;;;;;;;;;;;5054078;28;861;-73
2022/09/01 03:02:56;;;;;;;;;;;;;;;;;;5052144;28;1458;-73
2022/09/01 03:05:25;;;;;;;;;;;;;;;;;;5052810;28;1328;-73
2022/09/01 03:07:55;;;;;;;;;;;;;;;;;;5053998;28;857;-73
2022/09/01 03:10:23;;;;;;;;;;;;;;;;;;5052833;28;1128;-73
2022/09/01 03:12:49;;;;;;;;;;;;;;;;;;5052168;28;1377;-73
2022/09/01 03:15:15;;;;;;;;;;;;;;;;;;5069289;28;1973;-70
2022/09/01 03:17:41;;;;;;;;;;;;;;;;;;5052340;28;1419;-73
2022/09/01 03:20:08;;;;;;;;;;;;;;;;;;5052446;28;1183;-72
2022/09/01 03:22:34;;;;;;;;;;;;;;;;;;5052049;28;1163;-74
2022/09/01 03:25:02;;;;;;;;;;;;;;;;;;5053751;28;902;-73
2022/09/01 03:27:29;;;;;;;;;;;;;;;;;;5068909;28;1451;-75
2022/09/01 03:29:55;;;;;;;;;;;;;;;;;;5052365;28;1201;-74
2022/09/01 03:32:22;;;;;;;;;;;;;;;;;;5067999;28;1510;-73
2022/09/01 03:34:50;;;;;;;;;;;;;;;;;;5052176;28;1387;-73
2022/09/01 03:37:16;;;;;;;;;;;;;;;;;;5053255;28;1918;-73
2022/09/01 03:39:42;;;;;;;;;;;;;;;;;;5052242;28;1872;-73
2022/09/01 03:42:11;;;;;;;;;;;;;;;;;;5051635;28;1362;-73
2022/09/01 03:44:39;;;;;;;;;;;;;;;;;;5051742;28;1344;-74
2022/09/01 03:47:09;;;;;;;;;;;;;;;;;;5053214;28;1277;-72
2022/09/01 03:49:35;;;;;;;;;;;;;;;;;;5068377;28;909;-72
2022/09/01 03:52:02;;;;;;;;;;;;;;;;;;5051594;28;1582;-73
2022/09/01 03:54:29;;;;;;;;;;;;;;;;;;5051664;28;1208;-73
2022/09/01 03:56:58;;;;;;;;;;;;;;;;;;5051050;28;1981;-73
2022/09/01 03:59:27;;;;;;;;;;;;;;;;;;5053085;28;822;-74
2022/09/01 04:01:53;;;;;;;;;;;;;;;;;;5067685;28;1045;-72
2022/09/01 04:04:20;;;;;;;;;;;;;;;;;;5051279;28;1254;-72
2022/09/01 04:06:47;;;;;;;;;;;;;;;;;;5048398;28;2026;-72
2022/09/01 04:09:14;;;;;;;;;;;;;;;;;;5048744;28;1736;-72
2022/09/01 04:11:45;;;;;;;;;;;;;;;;;;5049816;28;2023;-73
2022/09/01 04:14:11;;;;;;;;;;;;;;;;;;5051123;28;1098;-71
2022/09/01 04:19:25;;;;;;;;;;;;;;;;;;5051030;28;1127;-72
2022/09/01 04:21:52;;;;;;;;;;;;;;;;;;5050651;28;1371;-72
2022/09/01 04:24:19;;;;;;;;;;;;;;;;;;5067869;28;1541;-72
2022/09/01 04:26:46;;;;;;;;;;;;;;;;;;5050575;28;1399;-72
2022/09/01 04:29:13;;;;;;;;;;;;;;;;;;5050926;28;1324;-71
2022/09/01 04:31:41;;;;;;;;;;;;;;;;;;5050355;28;1348;-73
2022/09/01 04:34:10;;;;;;;;;;;;;;;;;;5052201;28;850;-73
2022/09/01 04:36:37;;;;;;;;;;;;;;;;;;5051900;28;1918;-72
2022/09/01 04:39:07;;;;;;;;;;;;;;;;;;5050987;28;1375;-71
2022/09/01 04:41:34;;;;;;;;;;;;;;;;;;5050426;28;1197;-72
2022/09/01 04:44:04;;;;;;;;;;;;;;;;;;5050677;28;1470;-72
2022/09/01 04:46:34;;;;;;;;;;;;;;;;;;5066511;28;1427;-72
2022/09/01 04:49:06;;;;;;;;;;;;;;;;;;5058800;28;1421;-73
2022/09/01 04:51:34;;;;;;;;;;;;;;;;;;5039285;28;1688;-74
2022/09/01 04:54:01;;;;;;;;;;;;;;;;;;5048015;28;1411;-73
2022/09/01 04:56:30;;;;;;;;;;;;;;;;;;5050185;28;1985;-73
2022/09/01 04:59:06;;;;;;;;;;;;;;;;;;5048480;28;1462;-73
2022/09/01 05:01:41;;;;;;;;;;;;;;;;;;5043668;28;1498;-74
2022/09/01 05:04:11;;;;;;;;;;;;;;;;;;5039973;28;1363;-74
2022/09/01 05:06:40;;;;;;;;;;;;;;;;;;5050329;28;1513;-74
2022/09/01 05:09:08;;;;;;;;;;;;;;;;;;5049601;28;1316;-74
2022/09/01 05:11:48;;;;;;;;;;;;;;;;;;5046349;28;1292;-73
2022/09/01 05:14:28;;;;;;;;;;;;;;;;;;5029474;28;1343;-72
2022/09/01 05:16:57;;;;;;;;;;;;;;;;;;5029646;28;1983;-74
2022/09/01 05:19:27;;;;;;;;;;;;;;;;;;5030703;28;2002;-71
2022/09/01 05:21:56;;;;;;;;;;;;;;;;;;5049212;28;1584;-73
2022/09/01 05:24:28;;;;;;;;;;;;;;;;;;5067164;28;995;-72
2022/09/01 05:26:56;;;;;;;;;;;;;;;;;;5049748;28;1427;-73
2022/09/01 05:29:26;;;;;;;;;;;;;;;;;;5047982;28;1483;-73
2022/09/01 05:31:54;;;;;;;;;;;;;;;;;;5046143;28;1640;-71
2022/09/01 05:34:25;;;;;;;;;;;;;;;;;;5045419;28;1297;-74
2022/09/01 05:36:56;;;;;;;;;;;;;;;;;;5045209;28;1979;-73
2022/09/01 05:39:23;;;;;;;;;;;;;;;;;;5061117;28;1428;-74
2022/09/01 05:41:52;;;;;;;;;;;;;;;;;;5049025;28;1419;-74
2022/09/01 05:44:21;;;;;;;;;;;;;;;;;;5049143;28;1271;-73
2022/09/01 05:46:48;;;;;;;;;;;;;;;;;;5049784;28;1404;-74
2022/09/01 05:49:17;;;;;;;;;;;;;;;;;;5048805;28;1459;-74
2022/09/01 05:51:48;;;;;;;;;;;;;;;;;;5044483;28;1625;-75
2022/09/01 05:54:17;;;;;;;;;;;;;;;;;;5038831;28;1351;-74
2022/09/01 05:56:44;;;;;;;;;;;;;;;;;;5037449;28;1977;-73
2022/09/01 05:59:11;;;;;;;;;;;;;;;;;;5061217;28;1459;-74
2022/09/01 06:01:39;;;;;;;;;;;;;;;;;;5027426;28;1360;-74
2022/09/01 06:04:07;;;;;;;;;;;;;;;;;;5063080;28;1475;-74
2022/09/01 06:06:36;;;;;;;;;;;;;;;;;;5047010;28;1876;-73
2022/09/01 06:09:03;;;;;;;;;;;;;;;;;;5038210;28;1394;-75
2022/09/01 06:11:31;;;;;;;;;;;;;;;;;;5047226;28;1352;-74
2022/09/01 06:13:58;;;;;;;;;;;;;;;;;;5045428;28;1412;-75
2022/09/01 06:16:26;;;;;;;;;;;;;;;;;;5035028;28;1914;-75
2022/09/01 06:18:54;;;;;;;;;;;;;;;;;;5043025;28;1419;-75
2022/09/01 06:21:23;;;;;;;;;;;;;;;;;;5061724;28;1595;-73
2022/09/01 06:23:51;;;;;;;;;;;;;;;;;;5048014;28;1247;-73
2022/09/01 06:26:17;;;;;;;;;;;;;;;;;;5037810;28;1507;-73
2022/09/01 06:28:46;;;;;;;;;;;;;;;;;;5039936;28;1246;-73
2022/09/01 06:31:13;;;;;;;;;;;;;;;;;;5053173;28;1443;-73
2022/09/01 06:33:43;;;;;;;;;;;;;;;;;;5052935;28;1379;-73
2022/09/01 06:36:11;;;;;;;;;;;;;;;;;;5051759;28;2022;-72
2022/09/01 06:38:37;;;;;;;;;;;;;;;;;;5050290;28;1783;-72
2022/09/01 06:41:11;;;;;;;;;;;;;;;;;;5052894;28;1355;-73
2022/09/01 06:43:38;;;;;;;;;;;;;;;;;;5054020;28;775;-73
2022/09/01 06:46:07;;;;;;;;;;;;;;;;;;5046617;28;1486;-73
2022/09/01 06:48:33;;;;;;;;;;;;;;;;;;5037918;28;1352;-73
2022/09/01 06:51:04;;;;;;;;;;;;;;;;;;5051753;28;1598;-73
2022/09/01 06:53:33;;;;;;;;;;;;;;;;;;5057684;28;1633;-71
2022/09/01 06:56:01;;;;;;;;;;;;;;;;;;5051231;28;1918;-74
2022/09/01 06:58:29;;;;;;;;;;;;;;;;;;5052586;28;1275;-73
2022/09/01 07:00:56;;;;;;;;;;;;;;;;;;5052665;28;1390;-75
2022/09/01 07:03:23;;;;;;;;;;;;;;;;;;5042624;28;1456;-73
2022/09/01 07:06:04;;;;;;;;;;;;;;;;;;5039401;28;1517;-75
2022/09/01 07:09:02;;;;;;;;;;;;;;;;;;5049858;28;1531;-75
2022/09/01 07:11:31;;;;;;;;;;;;;;;;;;5068147;28;1492;-73
2022/09/01 07:14:00;;;;;;;;;;;;;;;;;;5042930;28;1383;-72
2022/09/01 07:16:28;;;;;;;;;;;;;;;;;;5044688;28;1918;-74
2022/09/01 07:18:57;;;;;;;;;;;;;;;;;;5045700;28;1439;-73
2022/09/01 07:21:24;;;;;;;;;;;;;;;;;;5048347;28;1842;-72
2022/09/01 07:23:51;;;;;;;;;;;;;;;;;;5063468;28;1519;-73
2022/09/01 07:26:18;;;;;;;;;;;;;;;;;;5046943;28;1381;-72
2022/09/01 07:28:45;;;;;;;;;;;;;;;;;;5041817;28;1435;-73
2022/09/01 07:31:19;;;;;;;;;;;;;;;;;;5067537;28;1646;-73
2022/09/01 07:33:47;;;;;;;;;;;;;;;;;;5043026;28;1438;-72
2022/09/01 07:36:16;;;;;;;;;;;;;;;;;;5045935;28;1981;-74
2022/09/01 07:38:42;;;;;;;;;;;;;;;;;;5045911;28;1695;-73
2022/09/01 07:41:11;;;;;;;;;;;;;;;;;;5048428;28;1564;-74
2022/09/01 07:44:09;;;;;;;;;;;;;;;;;;5042340;28;1391;-73
2022/09/01 07:46:57;;;;;;;;;;;;;;;;;;5051134;28;1295;-73
2022/09/01 07:49:24;;;;;;;;;;;;;;;;;;5050149;28;1147;-73
2022/09/01 07:51:54;;;;;;;;;;;;;;;;;;5066501;28;1459;-73
2022/09/01 07:54:23;;;;;;;;;;;;;;;;;;5050160;28;1210;-73
2022/09/01 07:56:50;;;;;;;;;;;;;;;;;;5050807;28;1979;-73
2022/09/01 07:59:17;;;;;;;;;;;;;;;;;;5050784;28;1257;-73
2022/09/01 08:01:52;;;;;;;;;;;;;;;;;;5051267;28;1435;-73
2022/09/01 08:04:21;;;;;;;;;;;;;;;;;;5068263;28;946;-72
2022/09/01 08:06:48;;;;;;;;;;;;;;;;;;5068207;28;1319;-73
2022/09/01 08:09:16;;;;;;;;;;;;;;;;;;5068165;28;1318;-72
2022/09/01 08:11:43;;;;;;;;;;;;;;;;;;5052044;28;843;-73
2022/09/01 08:14:10;;;;;;;;;;;;;;;;;;5051546;28;1340;-73
2022/09/01 08:16:36;;;;;;;;;;;;;;;;;;5050972;28;1905;-73
2022/09/01 08:19:03;;;;;;;;;;;;;;;;;;5051549;28;963;-73
2022/09/01 08:21:39;;;;;;;;;;;;;;;;;;5066012;28;1651;-73
2022/09/01 08:24:21;;;;;;;;;;;;;;;;;;5051074;28;1179;-73
2022/09/01 08:26:47;;;;;;;;;;;;;;;;;;5050943;28;1367;-73
2022/09/01 08:32:05;;;;;;;;;;;;;;;;;;4972126;28;1394;-77
2022/09/01 08:34:32;;;;;;;;;;;;;;;;;;4973614;28;945;-77
2022/09/01 08:36:58;;;;;;;;;;;;;;;;;;4956157;28;1974;-77
2022/09/01 08:39:26;;;;;;;;;;;;;;;;;;4972358;28;1333;-77
2022/09/01 08:41:54;;;;;;;;;;;;;;;;;;4955461;28;1250;-76
2022/09/01 08:44:22;;;;;;;;;;;;;;;;;;4956045;28;1493;-77
2022/09/01 08:46:49;;;;;;;;;;;;;;;;;;4955654;28;1499;-76
2022/09/01 08:49:16;;;;;;;;;;;;;;;;;;4955743;28;1345;-76
2022/09/01 08:52:06;;;;;;;;;;;;;;;;;;4972631;28;1009;-77
2022/09/01 08:54:35;;;;;;;;;;;;;;;;;;4955700;28;1811;-76
2022/09/01 08:57:05;;;;;;;;;;;;;;;;;;4955575;28;1915;-76
2022/09/01 08:59:51;;;;;;;;;;;;;;;;;;4972982;28;1344;-77
2022/09/01 09:02:32;;;;;;;;;;;;;;;;;;4955552;28;688;-77
2022/09/01 09:05:00;;;;;;;;;;;;;;;;;;4973019;28;1080;-76
2022/09/01 09:07:29;;;;;;;;;;;;;;;;;;4972949;28;986;-77
2022/09/01 09:09:58;;;;;;;;;;;;;;;;;;4955229;28;1349;-77
2022/09/01 09:12:30;;;;;;;;;;;;;;;;;;4955351;28;1294;-76
2022/09/01 09:15:00;;;;;;;;;;;;;;;;;;4972877;28;1061;-76
2022/09/01 09:17:27;;;;;;;;;;;;;;;;;;4972660;28;1935;-77
2022/09/01 09:19:54;;;;;;;;;;;;;;;;;;4972934;28;1311;-77
2022/09/01 09:22:20;;;;;;;;;;;;;;;;;;4966384;28;1670;-77
2022/09/01 09:24:49;;;;;;;;;;;;;;;;;;4991986;28;1072;-77
2022/09/01 09:27:20;;;;;;;;;;;;;;;;;;4991952;28;1143;-77
2022/09/01 09:29:47;;;;;;;;;;;;;;;;;;4991829;28;1429;-77
2022/09/01 09:32:13;;;;;;;;;;;;;;;;;;4991778;28;1170;-76
2022/09/01 09:34:40;;;;;;;;;;;;;;;;;;4991732;28;1037;-76
2022/09/01 09:37:17;;;;;;;;;;;;;;;;;;4990859;28;1985;-77
2022/09/01 09:39:44;;;;;;;;;;;;;;;;;;4990620;28;1424;-76
2022/09/01 09:42:10;;;;;;;;;;;;;;;;;;4991804;28;1072;-76
2022/09/01 09:44:42;;;;;;;;;;;;;;;;;;4992167;28;982;-77
2022/09/01 09:47:09;;;;;;;;;;;;;;;;;;4991874;28;990;-76
2022/09/01 09:49:36;;;;;;;;;;;;;;;;;;4991771;28;1332;-76
2022/09/01 09:52:12;;;;;;;;;;;;;;;;;;4990483;28;1349;-76
2022/09/01 09:54:39;;;;;;;;;;;;;;;;;;4991928;28;949;-76
2022/09/01 09:57:10;;;;;;;;;;;;;;;;;;4974497;28;1974;-77
2022/09/01 09:59:37;;;;;;;;;;;;;;;;;;4992168;28;1364;-78
2022/09/01 10:02:15;;;;;;;;;;;;;;;;;;4993633;28;1132;-76
2022/09/01 10:04:41;;;;;;;;;;;;;;;;;;4995614;28;819;-77
2022/09/01 10:07:22;;;;;;;;;;;;;;;;;;4995852;28;1069;-77
2022/09/01 10:09:49;;;;;;;;;;;;;;;;;;4995145;28;1413;-77
2022/09/01 10:12:16;;;;;;;;;;;;;;;;;;4995376;28;984;-77
2022/09/01 10:14:44;;;;;;;;;;;;;;;;;;4994226;28;1295;-76
2022/09/01 10:17:12;;;;;;;;;;;;;;;;;;4995485;28;1887;-77
2022/09/01 10:19:40;;;;;;;;;;;;;;;;;;4995192;28;1338;-76
2022/09/01 10:22:07;;;;;;;;;;;;;;;;;;4995133;28;953;-76
2022/09/01 10:24:34;;;;;;;;;;;;;;;;;;4995165;28;1064;-77
2022/09/01 10:27:01;;;;;;;;;;;;;;;;;;4995518;28;816;-76
2022/09/01 10:29:28;;;;;;;;;;;;;;;;;;4995258;28;1240;-76
2022/09/01 10:31:54;;;;;;;;;;;;;;;;;;4995257;28;923;-77
2022/09/01 10:34:21;;;;;;;;;;;;;;;;;;4995626;28;1077;-76
2022/09/01 10:36:49;;;;;;;;;;;;;;;;;;4995322;28;938;-76
2022/09/01 10:39:16;;;;;;;;;;;;;;;;;;4994912;28;1922;-79
2022/09/01 10:41:49;;;;;;;;;;;;;;;;;;4993434;28;1260;-76
2022/09/01 10:44:18;;;;;;;;;;;;;;;;;;4994895;28;1072;-77
2022/09/01 10:46:45;;;;;;;;;;;;;;;;;;4995009;28;1104;-76
2022/09/01 10:49:29;;;;;;;;;;;;;;;;;;4994866;28;1068;-76
2022/09/01 10:51:57;;;;;;;;;;;;;;;;;;4994858;28;894;-76
2022/09/01 10:54:42;;;;;;;;;;;;;;;;;;4993891;28;1340;-75
2022/09/01 10:57:08;;;;;;;;;;;;;;;;;;4977569;28;803;-76
2022/09/01 10:59:35;;;;;;;;;;;;;;;;;;4994694;28;1981;-76
2022/09/01 11:02:06;;;;;;;;;;;;;;;;;;4993817;28;2306;-76
2022/09/01 11:04:47;;;;;;;;;;;;;;;;;;4994598;28;1138;-76
2022/09/01 11:10:26;;;;;;;;;;;;;;;;;;5088800;27;1309;-77
2022/09/01 11:12:59;;;;;;;;;;;;;;;;;;5086187;28;1436;-78
2022/09/01 11:15:38;;;;;;;;;;;;;;;;;;5068576;28;949;-76
2022/09/01 11:18:07;;;;;;;;;;;;;;;;;;5068451;28;1350;-76
2022/09/01 11:20:34;;;;;;;;;;;;;;;;;;5066986;28;1448;-76
2022/09/01 11:23:01;;;;;;;;;;;;;;;;;;5068246;28;1134;-78
2022/09/01 11:25:34;;;;;;;;;;;;;;;;;;5068475;28;822;-75
2022/09/01 11:28:01;;;;;;;;;;;;;;;;;;5068610;28;1886;-79
2022/09/01 11:30:51;;;;;;;;;;;;;;;;;;5068487;28;1420;-76
2022/09/01 11:33:23;;;;;;;;;;;;;;;;;;5067954;28;1111;-76
2022/09/01 11:35:50;;;;;;;;;;;;;;;;;;5068256;28;949;-78
2022/09/01 11:38:16;;;;;;;;;;;;;;;;;;5067929;28;1460;-76
2022/09/01 11:40:44;;;;;;;;;;;;;;;;;;5067919;28;1489;-75
2022/09/01 11:43:11;;;;;;;;;;;;;;;;;;5065430;28;1369;-77
2022/09/01 11:45:38;;;;;;;;;;;;;;;;;;5067838;28;1122;-76
2022/09/01 11:48:06;;;;;;;;;;;;;;;;;;5067923;28;1975;-76
2022/09/01 11:50:33;;;;;;;;;;;;;;;;;;5066541;28;1312;-75
2022/09/01 11:52:59;;;;;;;;;;;;;;;;;;5067668;28;1059;-75
2022/09/01 11:55:29;;;;;;;;;;;;;;;;;;5067672;28;1067;-75
2022/09/01 11:57:57;;;;;;;;;;;;;;;;;;5067824;28;1143;-76
2022/09/01 12:00:26;;;;;;;;;;;;;;;;;;5067773;28;1286;-76
2022/09/01 12:02:53;;;;;;;;;;;;;;;;;;5065982;28;889;-76
2022/09/01 12:05:24;;;;;;;;;;;;;;;;;;5066512;28;1194;-76
2022/09/01 12:07:51;;;;;;;;;;;;;;;;;;5068598;28;971;-75
2022/09/01 12:10:19;;;;;;;;;;;;;;;;;;5087996;28;1979;-76
2022/09/01 12:12:45;;;;;;;;;;;;;;;;;;5087324;28;960;-76
2022/09/01 12:15:17;;;;;;;;;;;;;;;;;;5086503;28;1537;-76
2022/09/01 12:17:44;;;;;;;;;;;;;;;;;;5086376;28;1107;-76
2022/09/01 12:20:20;;;;;;;;;;;;;;;;;;5081334;28;1368;-76
2022/09/01 12:22:46;;;;;;;;;;;;;;;;;;5072511;28;1100;-76
2022/09/01 12:25:17;;;;;;;;;;;;;;;;;;5072712;28;1325;-76
2022/09/01 12:27:43;;;;;;;;;;;;;;;;;;5072690;28;1288;-75
2022/09/01 12:30:10;;;;;;;;;;;;;;;;;;5073884;28;1985;-76
2022/09/01 12:32:38;;;;;;;;;;;;;;;;;;5072242;28;1194;-77
2022/09/01 12:35:05;;;;;;;;;;;;;;;;;;5074042;28;1064;-76
2022/09/01 12:37:31;;;;;;;;;;;;;;;;;;5072572;28;1156;-78
2022/09/01 12:39:58;;;;;;;;;;;;;;;;;;5072552;28;1370;-76
2022/09/01 12:42:26;;;;;;;;;;;;;;;;;;5073213;28;1096;-76
2022/09/01 12:44:52;;;;;;;;;;;;;;;;;;5073459;28;1071;-75
2022/09/01 12:47:34;;;;;;;;;;;;;;;;;;5072507;28;1644;-76
2022/09/01 12:50:02;;;;;;;;;;;;;;;;;;5073832;28;1922;-77
2022/09/01 12:52:29;;;;;;;;;;;;;;;;;;5074155;28;830;-78
2022/09/01 12:55:09;;;;;;;;;;;;;;;;;;5076691;28;1158;-78
2022/09/01 12:57:36;;;;;;;;;;;;;;;;;;5074063;28;926;-77
2022/09/01 13:00:14;;;;;;;;;;;;;;;;;;5073803;28;1329;-77
2022/09/01 13:02:41;;;;;;;;;;;;;;;;;;5073187;28;1111;-77
2022/09/01 13:05:22;;;;;;;;;;;;;;;;;;5073500;28;1067;-78
2022/09/01 13:07:48;;;;;;;;;;;;;;;;;;5072988;28;898;-77
2022/09/01 13:10:14;;;;;;;;;;;;;;;;;;5073295;28;1922;-78
2022/09/01 13:12:41;;;;;;;;;;;;;;;;;;5072344;28;826;-79
2022/09/01 13:15:07;;;;;;;;;;;;;;;;;;5073382;28;1075;-74
2022/09/01 13:17:33;;;;;;;;;;;;;;;;;;5073280;28;762;-77
2022/09/01 13:20:00;;;;;;;;;;;;;;;;;;5075436;28;1661;-76
2022/09/01 13:22:27;;;;;;;;;;;;;;;;;;5072775;28;762;-76
2022/09/01 13:24:53;;;;;;;;;;;;;;;;;;5073098;28;961;-78
2022/09/01 13:27:20;;;;;;;;;;;;;;;;;;5072887;28;1144;-76
2022/09/01 13:29:46;;;;;;;;;;;;;;;;;;5072545;28;1978;-75
2022/09/01 13:32:13;;;;;;;;;;;;;;;;;;5070153;28;1158;-76
2022/09/01 13:34:40;;;;;;;;;;;;;;;;;;5071440;28;1311;-76
2022/09/01 13:37:06;;;;;;;;;;;;;;;;;;5071231;28;1164;-74
2022/09/01 13:39:34;;;;;;;;;;;;;;;;;;5072512;28;1342;-77
2022/09/01 13:42:00;;;;;;;;;;;;;;;;;;5072137;28;802;-76
2022/09/01 13:44:26;;;;;;;;;;;;;;;;;;5071284;28;1175;-75
2022/09/01 13:46:53;;;;;;;;;;;;;;;;;;5072949;28;1063;-76
2022/09/01 13:49:20;;;;;;;;;;;;;;;;;;5072433;28;1972;-76
2022/09/01 13:51:50;;;;;;;;;;;;;;;;;;5072516;28;1067;-76
2022/09/01 13:54:16;;;;;;;;;;;;;;;;;;5072395;28;1397;-76
2022/09/01 13:56:44;;;;;;;;;;;;;;;;;;5071062;28;1335;-74
2022/09/01 13:59:10;;;;;;;;;;;;;;;;;;5072151;28;1071;-76
2022/09/01 14:01:36;;;;;;;;;;;;;;;;;;5071482;28;1324;-77
2022/09/01 14:04:04;;;;;;;;;;;;;;;;;;5072198;28;1079;-77
2022/09/01 14:06:31;;;;;;;;;;;;;;;;;;5071996;28;786;-75
2022/09/01 14:08:58;;;;;;;;;;;;;;;;;;5071863;28;1910;-75
2022/09/01 14:11:25;;;;;;;;;;;;;;;;;;5071509;28;1392;-75
2022/09/01 14:13:53;;;;;;;;;;;;;;;;;;5071940;28;1075;-75
2022/09/01 14:16:19;;;;;;;;;;;;;;;;;;5071913;28;1145;-75
2022/09/01 14:18:45;;;;;;;;;;;;;;;;;;5071522;28;980;-75
2022/09/01 14:21:12;;;;;;;;;;;;;;;;;;5071724;28;1348;-76
2022/09/01 14:23:38;;;;;;;;;;;;;;;;;;5070118;28;1519;-76
2022/09/01 14:26:07;;;;;;;;;;;;;;;;;;5071809;28;957;-76
2022/09/01 14:28:33;;;;;;;;;;;;;;;;;;5071701;28;1418;-77
2022/09/01 14:31:04;;;;;;;;;;;;;;;;;;5088733;22;3676;-73
2022/09/01 14:33:31;;;;;;;;;;;;;;;;;;5110548;28;1067;-74
2022/09/01 14:35:57;;;;;;;;;;;;;;;;;;5111891;28;1095;-75
2022/09/01 14:38:23;;;;;;;;;;;;;;;;;;5112271;28;1062;-73
2022/09/01 14:40:50;;;;;;;;;;;;;;;;;;5111590;28;1337;-73
2022/09/01 14:43:17;;;;;;;;;;;;;;;;;;5093436;28;1111;-75
2022/09/01 14:45:44;;;;;;;;;;;;;;;;;;5112308;28;1011;-75
2022/09/01 14:48:13;;;;;;;;;;;;;;;;;;5111792;28;695;-74
2022/09/01 14:50:40;;;;;;;;;;;;;;;;;;5093589;28;2013;-75
2022/09/01 14:53:06;;;;;;;;;;;;;;;;;;5111263;28;874;-74
2022/09/01 14:55:33;;;;;;;;;;;;;;;;;;5111974;28;1099;-75
2022/09/01 14:57:59;;;;;;;;;;;;;;;;;;5111749;28;1067;-74
2022/09/01 15:00:25;;;;;;;;;;;;;;;;;;5111624;28;1339;-74
2022/09/01 15:02:52;;;;;;;;;;;;;;;;;;5111392;28;1083;-75
2022/09/01 15:05:20;;;;;;;;;;;;;;;;;;5111878;28;1040;-75
2022/09/01 15:07:46;;;;;;;;;;;;;;;;;;5111730;28;1114;-75
2022/09/01 15:10:14;;;;;;;;;;;;;;;;;;5111710;28;1973;-75
2022/09/01 15:12:40;;;;;;;;;;;;;;;;;;5111491;28;1406;-75
2022/09/01 15:15:07;;;;;;;;;;;;;;;;;;5093410;28;1370;-76
2022/09/01 15:17:33;;;;;;;;;;;;;;;;;;5109745;28;1534;-74
2022/09/01 15:20:43;;;;;;;;;;;;;;;;;;5091075;28;853;-75
2022/09/01 15:22:48;;;;;;;;;;;;;;;;;;5090518;28;1496;-74
2022/09/01 15:25:14;;;;;;;;;;;;;;;;;;5091490;28;968;-75
2022/09/01 15:27:40;;;;;;;;;;;;;;;;;;5091303;28;1115;-75
2022/09/01 15:30:14;;;;;;;;;;;;;;;;;;5091334;28;1919;-76
2022/09/01 15:32:40;;;;;;;;;;;;;;;;;;5072886;28;1440;-73
2022/09/01 15:35:07;;;;;;;;;;;;;;;;;;5072975;28;1198;-75
2022/09/01 15:37:33;;;;;;;;;;;;;;;;;;5073265;28;1159;-75
2022/09/01 15:40:01;;;;;;;;;;;;;;;;;;5090977;28;827;-74
2022/09/01 15:42:27;;;;;;;;;;;;;;;;;;5090843;28;1300;-74
2022/09/01 15:44:54;;;;;;;;;;;;;;;;;;5091312;28;1083;-74
2022/09/01 15:47:20;;;;;;;;;;;;;;;;;;5091385;28;1126;-74
2022/09/01 15:49:46;;;;;;;;;;;;;;;;;;5091064;28;1972;-74
2022/09/01 15:52:12;;;;;;;;;;;;;;;;;;5090670;28;1385;-74
2022/09/01 15:54:39;;;;;;;;;;;;;;;;;;5091176;28;909;-75
2022/09/01 15:57:06;;;;;;;;;;;;;;;;;;5076611;28;1592;-74
2022/09/01 15:59:32;;;;;;;;;;;;;;;;;;5094778;28;1111;-75
2022/09/01 16:01:59;;;;;;;;;;;;;;;;;;5094141;28;1383;-75
2022/09/01 16:04:25;;;;;;;;;;;;;;;;;;5076441;28;1106;-74
2022/09/01 16:06:53;;;;;;;;;;;;;;;;;;5094590;28;1059;-74
2022/09/01 16:09:20;;;;;;;;;;;;;;;;;;5094457;28;1914;-75
2022/09/01 16:11:46;;;;;;;;;;;;;;;;;;5094165;28;1297;-75
2022/09/01 16:14:14;;;;;;;;;;;;;;;;;;5094561;28;1207;-74
2022/09/01 16:16:43;;;;;;;;;;;;;;;;;;5076151;28;1439;-74
2022/09/01 16:19:14;;;;;;;;;;;;;;;;;;5094442;28;1118;-75
2022/09/01 16:21:42;;;;;;;;;;;;;;;;;;5094174;28;1325;-74
2022/09/01 16:24:10;;;;;;;;;;;;;;;;;;5094308;28;1115;-75
2022/09/01 16:26:37;;;;;;;;;;;;;;;;;;5094277;28;1047;-75
2022/09/01 16:29:07;;;;;;;;;;;;;;;;;;5075657;28;1258;-75
2022/09/01 16:31:34;;;;;;;;;;;;;;;;;;5075329;28;1914;-75
2022/09/01 16:34:02;;;;;;;;;;;;;;;;;;5075825;28;1048;-74
2022/09/01 16:36:31;;;;;;;;;;;;;;;;;;5094382;28;790;-75
2022/09/01 16:38:58;;;;;;;;;;;;;;;;;;5093882;28;1103;-74
2022/09/01 16:41:36;;;;;;;;;;;;;;;;;;5093593;28;1265;-74
2022/09/01 16:44:05;;;;;;;;;;;;;;;;;;5093954;28;901;-75
2022/09/01 16:46:33;;;;;;;;;;;;;;;;;;5093591;28;814;-75
2022/09/01 16:49:03;;;;;;;;;;;;;;;;;;5075696;28;1148;-74
2022/09/01 16:51:31;;;;;;;;;;;;;;;;;;5093546;28;1923;-75
2022/09/01 16:54:03;;;;;;;;;;;;;;;;;;5093420;28;940;-74
2022/09/01 16:56:31;;;;;;;;;;;;;;;;;;5093352;28;957;-74
2022/09/01 16:59:02;;;;;;;;;;;;;;;;;;5093491;28;1029;-74
2022/09/01 17:01:31;;;;;;;;;;;;;;;;;;5093168;28;1301;-74
2022/09/01 17:04:07;;;;;;;;;;;;;;;;;;5093119;28;784;-74
2022/09/01 17:06:35;;;;;;;;;;;;;;;;;;5093282;28;937;-72
2022/09/01 17:09:05;;;;;;;;;;;;;;;;;;5075511;28;1479;-75
2022/09/01 17:11:33;;;;;;;;;;;;;;;;;;5111228;28;1913;-72
2022/09/01 17:13:59;;;;;;;;;;;;;;;;;;5113697;28;1174;-74
2022/09/01 17:16:28;;;;;;;;;;;;;;;;;;5095488;28;1170;-75
2022/09/01 17:18:55;;;;;;;;;;;;;;;;;;5113563;28;1071;-74
2022/09/01 17:21:24;;;;;;;;;;;;;;;;;;5113116;28;1290;-74
2022/09/01 17:23:52;;;;;;;;;;;;;;;;;;5113501;28;842;-74
2022/09/01 17:26:19;;;;;;;;;;;;;;;;;;5113467;28;1071;-75